OPMT

Details ICAO OPMT (MUX)
Name MULTAN INTL
Region Pakistan
Timezone Asia/Karachi (UTC+5.0)
Plans Departing 20
Arriving 21
Stats Elevation 403 ft / 123 m (AMSL)
Location 30.203279° 71.419111°
Runways 1
Magnetic Variation 1.915° E
Sunrise 2017-12-15 02:04:26 UTC / 2017-12-15 07:04:26 Local
Sunset 2017-12-15 12:17:08 UTC / 2017-12-15 17:17:08 Local
Advertisement - Login to hide

Runways

ID Width Length Bearing (true) Bearing (mag) Surface Threshold Offset Overrun Length
18 98 ft / 30 m 9,076 ft / 2,766 m 183.32° 181.40° Asphalt 0 ft / 0 m 899 ft / 274 m
36 98 ft / 30 m 9,076 ft / 2,766 m 3.32° 1.40° Asphalt 0 ft / 0 m 1,050 ft / 320 m

Map

Weather


0- 5 10 15 20 25 30 35+ Temperature / ° C

Clouds and Precipitation
Forecast for 2017-12-15 06:00 UTC. Updated 2 hours ago

Ground ~20,000 ft ~40,000 ft Winds

METAR

OPMT 150155Z 00000KT 0150MTR FOG VV/// 06/06 Q1021 NOSIG

TAF

TAF OPMT 141735Z 1418/1512 36005KT 1500 BR NSC TN07/1501Z TX14/1510Z PROB30 TEMPO 1501/1505 00000KT 0100 FG VV/// TEMPO 1508/1512 05005KT 3000 FU NSC

Frequencies

Ground 121.80 MHz TWR
Tower 122.60 MHz TWR
Approach 122.60 MHz TWR
Tower 119.10 MHz TWR
Approach 119.10 MHz TWR
Warning: Do not use this data for real-world aviation or navigation. No guarantee of current accuracy is given.